createdAt,value
2023-03-14T00:00:29.786Z,94196.13
2023-03-14T00:05:31.394Z,94167.25
2023-03-14T00:10:32.974Z,94122.53
2023-03-14T00:15:35.526Z,94087.16
2023-03-14T00:20:37.177Z,94100.72
2023-03-14T00:25:38.786Z,94141.00
2023-03-14T00:30:40.407Z,94162.78
2023-03-14T00:35:44.445Z,94176.34
2023-03-14T00:40:46.151Z,94234.38
2023-03-14T00:45:48.020Z,94236.50
2023-03-14T00:50:50.027Z,94234.41
2023-03-14T00:55:51.576Z,94262.78
2023-03-14T01:00:53.115Z,94252.53
2023-03-14T01:05:54.848Z,94225.31
2023-03-14T01:10:56.520Z,94206.28
2023-03-14T01:16:08.568Z,94217.13
2023-03-14T01:21:27.700Z,94194.09
2023-03-14T01:26:31.753Z,94204.75
2023-03-14T01:31:33.684Z,94201.44
2023-03-14T01:36:36.242Z,94184.88
2023-03-14T01:41:38.055Z,94181.22
2023-03-14T01:46:41.333Z,94197.16
2023-03-14T01:52:04.656Z,94175.56
2023-03-14T01:57:12.496Z,94152.63
2023-03-14T02:02:16.506Z,94139.31
2023-03-14T02:07:31.633Z,94105.38
2023-03-14T02:12:43.643Z,94087.94
2023-03-14T02:17:50.416Z,94075.91
2023-03-14T02:23:48.767Z,94067.91
2023-03-14T02:28:51.681Z,94041.72
2023-03-14T02:33:53.709Z,94068.78
2023-03-14T02:39:14.988Z,94084.91
2023-03-14T02:44:19.238Z,94089.59
2023-03-14T02:49:21.030Z,94095.16
2023-03-14T02:54:22.674Z,94087.72
2023-03-14T02:59:25.389Z,94110.78
2023-03-14T03:04:31.298Z,94110.44
2023-03-14T03:09:32.875Z,94122.53
2023-03-14T03:14:34.737Z,94117.16
2023-03-14T03:19:39.488Z,94115.38
2023-03-14T03:24:41.118Z,94113.84
2023-03-14T03:29:42.761Z,94113.34
2023-03-14T03:34:44.619Z,94109.44
2023-03-14T03:39:46.345Z,94115.56
2023-03-14T03:44:49.376Z,94092.19
2023-03-14T03:49:51.056Z,94082.91
2023-03-14T03:54:52.640Z,94073.88
2023-03-14T03:59:54.221Z,94086.91
2023-03-14T04:04:55.751Z,94079.84
2023-03-14T04:09:57.448Z,94080.34
2023-03-14T04:15:19.596Z,94072.84
2023-03-14T04:20:25.026Z,94066.47
2023-03-14T04:25:27.313Z,94062.97
2023-03-14T04:30:32.082Z,94042.44
2023-03-14T04:35:56.321Z,94041.56
2023-03-14T04:40:58.311Z,94039.28
2023-03-14T04:46:05.535Z,94035.69
2023-03-14T04:51:07.958Z,94028.97
2023-03-14T04:56:10.252Z,94027.00
2023-03-14T05:01:14.345Z,94030.84
2023-03-14T05:06:35.896Z,94054.69
2023-03-14T05:11:43.387Z,94033.41
2023-03-14T05:16:56.756Z,94019.34
2023-03-14T05:22:13.683Z,94040.41
2023-03-14T05:27:27.099Z,94017.06
2023-03-14T05:32:47.732Z,94008.63
2023-03-14T05:38:00.069Z,94001.97
2023-03-14T05:43:10.403Z,94002.66
2023-03-14T05:48:30.460Z,93990.78
2023-03-14T05:53:50.639Z,93986.09
2023-03-14T05:59:09.952Z,94007.91
2023-03-14T06:04:27.526Z,94004.44
2023-03-14T06:09:33.555Z,94002.81
2023-03-14T06:14:37.066Z,94003.03
2023-03-14T06:19:38.772Z,94000.31
2023-03-14T06:24:40.387Z,94010.13
2023-03-14T06:29:42.030Z,94007.09
2023-03-14T06:34:43.616Z,93992.25
2023-03-14T06:39:45.374Z,94000.53
2023-03-14T06:44:55.971Z,94002.47
2023-03-14T06:49:58.519Z,94004.53
2023-03-14T06:55:00.430Z,94000.00
2023-03-14T07:00:04.028Z,94009.41
2023-03-14T07:05:06.300Z,94007.53
2023-03-14T07:10:09.805Z,93992.53
2023-03-14T07:15:18.700Z,93996.78
2023-03-14T07:20:24.710Z,93999.94
2023-03-14T07:25:27.502Z,94000.69
2023-03-14T07:30:29.305Z,94003.84
2023-03-14T07:35:32.782Z,94011.69
2023-03-14T07:40:34.417Z,94005.81
2023-03-14T07:45:43.228Z,94040.41
2023-03-14T07:50:45.249Z,94044.50
2023-03-14T07:55:47.249Z,94053.44
2023-03-14T08:00:49.478Z,94055.66
2023-03-14T08:05:51.864Z,94050.97
2023-03-14T08:10:53.455Z,94037.59
2023-03-14T08:15:55.081Z,94041.09
2023-03-14T08:20:56.787Z,94032.16
2023-03-14T08:25:58.418Z,94019.28
2023-03-14T08:31:01.073Z,94014.16
2023-03-14T08:36:02.875Z,94013.47
2023-03-14T08:41:05.164Z,94006.22
2023-03-14T08:46:06.905Z,94002.03
2023-03-14T08:51:09.587Z,94007.16
2023-03-14T08:56:11.294Z,94003.97
2023-03-14T09:01:13.087Z,94006.28
2023-03-14T09:06:14.737Z,93996.47
2023-03-14T09:11:16.386Z,94002.84
2023-03-14T09:16:18.012Z,93990.53
2023-03-14T09:21:19.575Z,93999.53
2023-03-14T09:26:21.225Z,94001.06
2023-03-14T09:31:22.757Z,94009.25
2023-03-14T09:36:24.331Z,94003.00
2023-03-14T09:41:30.113Z,94005.47
2023-03-14T09:46:36.356Z,94016.00
2023-03-14T09:51:38.697Z,94006.97
2023-03-14T09:56:40.350Z,94014.16
2023-03-14T10:01:41.954Z,93996.81
2023-03-14T10:06:43.553Z,94000.88
2023-03-14T10:11:45.225Z,93998.81
2023-03-14T10:16:47.221Z,93983.50
2023-03-14T10:21:55.625Z,93966.78
2023-03-14T10:27:05.610Z,93953.13
2023-03-14T10:32:10.966Z,93962.09
2023-03-14T10:37:23.795Z,93953.44
2023-03-14T10:42:31.131Z,93962.81
2023-03-14T10:47:33.276Z,93946.97
2023-03-14T10:52:51.270Z,93961.06
2023-03-14T10:57:58.920Z,93950.41
2023-03-14T11:03:11.190Z,93961.31
2023-03-14T11:08:32.481Z,93971.72
2023-03-14T11:13:49.759Z,93956.19
2023-03-14T11:19:21.129Z,93951.91
2023-03-14T11:24:36.209Z,93961.75
2023-03-14T11:29:42.285Z,93950.75
2023-03-14T11:34:55.080Z,93953.00
2023-03-14T11:40:30.585Z,93961.38
2023-03-14T11:45:36.992Z,93938.75
2023-03-14T11:50:40.842Z,93929.72
2023-03-14T11:55:43.834Z,93924.59
2023-03-14T12:00:48.144Z,93921.47
2023-03-14T12:06:28.191Z,93921.81
2023-03-14T12:11:53.810Z,93921.19
2023-03-14T12:17:05.257Z,93922.22
2023-03-14T12:22:09.667Z,93917.41
2023-03-14T12:27:34.522Z,93927.03
2023-03-14T12:32:36.191Z,93925.31
2023-03-14T12:37:43.020Z,93905.84
2023-03-14T12:42:59.128Z,93909.63
2023-03-14T12:48:11.762Z,93901.38
2023-03-14T12:53:38.478Z,93893.03
2023-03-14T12:58:48.819Z,93895.97
2023-03-14T13:03:57.754Z,93898.13
2023-03-14T13:08:59.409Z,93884.94
2023-03-14T13:14:00.968Z,93885.91
2023-03-14T13:19:14.348Z,93918.56
2023-03-14T13:24:26.322Z,93902.78
2023-03-14T13:29:32.265Z,93888.97
2023-03-14T13:34:35.840Z,93893.53
2023-03-14T13:39:41.439Z,93897.59
2023-03-14T13:44:43.280Z,93911.75
2023-03-14T13:49:46.213Z,93937.53
2023-03-14T13:54:47.860Z,93984.56
2023-03-14T14:00:19.148Z,93963.28
2023-03-14T14:05:20.745Z,93976.19
2023-03-14T14:10:22.492Z,93991.47
2023-03-14T14:15:27.886Z,94007.97
2023-03-14T14:20:38.675Z,94011.34
2023-03-14T14:25:40.910Z,94007.06
2023-03-14T14:30:42.747Z,94027.19
2023-03-14T14:36:01.578Z,94029.59
2023-03-14T14:41:03.930Z,94023.66
2023-03-14T14:46:08.901Z,94049.19
2023-03-14T14:51:10.555Z,94035.47
2023-03-14T14:56:18.902Z,94042.41
2023-03-14T15:01:24.422Z,94055.56
2023-03-14T15:06:29.877Z,94058.13
2023-03-14T15:11:31.352Z,94116.75
2023-03-14T15:16:33.114Z,94091.63
2023-03-14T15:21:34.812Z,94116.81
2023-03-14T15:26:36.480Z,94146.59
2023-03-14T15:31:38.194Z,94173.13
2023-03-14T15:36:39.818Z,94195.69
2023-03-14T15:41:41.332Z,94228.44
2023-03-14T15:46:42.861Z,94251.75
2023-03-14T15:51:44.332Z,94267.84
2023-03-14T15:56:45.952Z,94264.72
2023-03-14T16:01:49.058Z,94285.19
2023-03-14T16:06:50.756Z,94284.06
2023-03-14T16:11:52.321Z,94298.13
2023-03-14T16:16:55.857Z,94323.38
2023-03-14T16:21:58.019Z,94322.97
2023-03-14T16:26:59.577Z,94345.28
2023-03-14T16:32:01.157Z,94384.63
2023-03-14T16:37:02.847Z,94383.88
2023-03-14T16:42:04.399Z,94386.66
2023-03-14T16:47:10.035Z,94410.41
2023-03-14T16:52:12.520Z,94407.34
2023-03-14T16:57:14.291Z,94433.03
2023-03-14T17:02:16.094Z,94439.97
2023-03-14T17:07:17.655Z,94467.69
2023-03-14T17:12:19.246Z,94457.66
2023-03-14T17:17:20.925Z,94485.91
2023-03-14T17:22:25.151Z,94490.19
2023-03-14T17:27:28.977Z,94521.66
2023-03-14T17:32:30.606Z,94527.16
2023-03-14T17:37:32.528Z,94540.75
2023-03-14T17:42:34.127Z,94551.25
2023-03-14T17:47:35.655Z,94573.00
2023-03-14T17:52:37.668Z,94576.44
2023-03-14T17:57:40.205Z,94579.59
2023-03-14T18:02:42.080Z,94611.34
2023-03-14T18:07:43.905Z,94619.06
2023-03-14T18:12:45.636Z,94652.88
2023-03-14T18:17:47.238Z,94646.59
2023-03-14T18:22:48.793Z,94663.31
2023-03-14T18:27:50.322Z,94673.03
2023-03-14T18:32:51.898Z,94679.25
2023-03-14T18:37:53.709Z,94683.53
2023-03-14T18:42:55.898Z,94703.69
2023-03-14T18:47:58.229Z,94704.50
2023-03-14T18:52:59.760Z,94726.25
2023-03-14T18:58:01.908Z,94722.38
2023-03-14T19:03:04.521Z,94732.13
2023-03-14T19:08:06.072Z,94735.22
2023-03-14T19:13:07.603Z,94741.44
2023-03-14T19:18:10.872Z,94753.81
2023-03-14T19:23:14.086Z,94768.91
2023-03-14T19:28:15.721Z,94775.88
2023-03-14T19:33:18.369Z,94782.09
2023-03-14T19:38:19.877Z,94786.34
2023-03-14T19:43:21.371Z,94796.41
2023-03-14T19:48:29.938Z,94808.44
2023-03-14T19:53:31.741Z,94812.34
2023-03-14T19:58:34.417Z,94820.13
2023-03-14T20:03:36.667Z,94845.75
2023-03-14T20:08:39.267Z,94837.25
2023-03-14T20:13:40.966Z,94833.34
2023-03-14T20:18:42.689Z,94834.06
2023-03-14T20:23:44.453Z,94844.56
2023-03-14T20:28:47.197Z,94848.84
2023-03-14T20:33:51.291Z,94851.16
2023-03-14T20:38:53.601Z,94866.66
2023-03-14T20:43:55.107Z,94869.72
2023-03-14T20:48:56.602Z,94872.03
2023-03-14T20:53:58.312Z,94877.47
2023-03-14T20:58:59.813Z,94882.91
2023-03-14T21:04:01.395Z,94881.75
2023-03-14T21:09:05.455Z,94888.00
2023-03-14T21:14:07.188Z,94882.94
2023-03-14T21:19:08.751Z,94886.81
2023-03-14T21:24:10.316Z,94889.16
2023-03-14T21:29:11.816Z,94895.75
2023-03-14T21:34:13.466Z,94894.19
2023-03-14T21:39:15.238Z,94893.03
2023-03-14T21:44:18.968Z,94889.13
2023-03-14T21:49:20.495Z,94888.75
2023-03-14T21:54:22.076Z,94892.66
2023-03-14T21:59:24.042Z,94893.03
2023-03-14T22:04:25.901Z,94901.97
2023-03-14T22:09:28.502Z,94908.59
2023-03-14T22:14:30.069Z,94901.97
2023-03-14T22:19:35.024Z,94909.34
2023-03-14T22:24:36.552Z,94906.25
2023-03-14T22:29:38.036Z,94912.47
2023-03-14T22:34:39.641Z,94907.44
2023-03-14T22:39:41.310Z,94918.31
2023-03-14T22:44:42.846Z,94919.16
2023-03-14T22:49:44.485Z,94926.19
2023-03-14T22:54:46.070Z,94915.31
2023-03-14T22:59:47.604Z,94924.69
2023-03-14T23:04:49.326Z,94933.22
2023-03-14T23:09:51.124Z,94946.34
2023-03-14T23:14:53.932Z,94962.97
2023-03-14T23:19:55.676Z,94970.34
2023-03-14T23:24:57.217Z,94972.22
2023-03-14T23:29:59.164Z,94990.03
2023-03-14T23:35:00.714Z,94997.72
2023-03-14T23:40:03.528Z,95007.00
2023-03-14T23:45:05.497Z,94994.94
2023-03-14T23:50:07.542Z,94994.06
2023-03-14T23:55:09.491Z,95016.09
